sensor_id;sensor_type;location;lat;lon;timestamp;P1;durP1;ratioP1;P2;durP2;ratioP2
14732;SDS011;7457;50.960;6.830;2023-04-01T00:00:52;1.45;;;0.70;;
14732;SDS011;7457;50.960;6.830;2023-04-01T00:03:19;3.10;;;0.60;;
14732;SDS011;7457;50.960;6.830;2023-04-01T00:05:45;2.53;;;0.80;;
14732;SDS011;7457;50.960;6.830;2023-04-01T00:08:12;1.50;;;0.50;;
14732;SDS011;7457;50.960;6.830;2023-04-01T00:10:38;1.30;;;0.80;;
14732;SDS011;7457;50.960;6.830;2023-04-01T00:13:03;1.73;;;0.80;;
14732;SDS011;7457;50.960;6.830;2023-04-01T00:15:29;1.90;;;0.90;;
14732;SDS011;7457;50.960;6.830;2023-04-01T00:17:55;2.55;;;0.82;;
14732;SDS011;7457;50.960;6.830;2023-04-01T00:20:21;2.15;;;0.80;;
14732;SDS011;7457;50.960;6.830;2023-04-01T00:22:47;1.15;;;0.55;;
14732;SDS011;7457;50.960;6.830;2023-04-01T00:25:13;0.50;;;0.50;;
14732;SDS011;7457;50.960;6.830;2023-04-01T00:27:39;1.13;;;0.73;;
14732;SDS011;7457;50.960;6.830;2023-04-01T00:30:05;3.22;;;1.00;;
14732;SDS011;7457;50.960;6.830;2023-04-01T00:32:32;1.45;;;0.90;;
14732;SDS011;7457;50.960;6.830;2023-04-01T00:34:58;4.68;;;0.80;;
14732;SDS011;7457;50.960;6.830;2023-04-01T00:37:24;0.88;;;0.50;;
14732;SDS011;7457;50.960;6.830;2023-04-01T00:39:51;2.97;;;1.23;;
14732;SDS011;7457;50.960;6.830;2023-04-01T00:42:16;1.20;;;0.60;;
14732;SDS011;7457;50.960;6.830;2023-04-01T00:44:44;1.58;;;0.70;;
14732;SDS011;7457;50.960;6.830;2023-04-01T00:47:12;0.98;;;0.60;;
14732;SDS011;7457;50.960;6.830;2023-04-01T00:49:40;0.95;;;0.80;;
14732;SDS011;7457;50.960;6.830;2023-04-01T00:52:11;1.70;;;0.70;;
14732;SDS011;7457;50.960;6.830;2023-04-01T00:54:40;0.52;;;0.50;;
14732;SDS011;7457;50.960;6.830;2023-04-01T00:57:09;1.33;;;1.23;;
14732;SDS011;7457;50.960;6.830;2023-04-01T00:59:44;1.02;;;0.70;;
14732;SDS011;7457;50.960;6.830;2023-04-01T01:02:13;1.20;;;0.60;;
14732;SDS011;7457;50.960;6.830;2023-04-01T01:04:40;1.38;;;0.77;;
14732;SDS011;7457;50.960;6.830;2023-04-01T01:07:20;0.82;;;0.55;;
14732;SDS011;7457;50.960;6.830;2023-04-01T01:09:56;0.90;;;0.63;;
14732;SDS011;7457;50.960;6.830;2023-04-01T01:12:45;0.55;;;0.55;;
14732;SDS011;7457;50.960;6.830;2023-04-01T01:17:56;0.73;;;0.73;;
14732;SDS011;7457;50.960;6.830;2023-04-01T01:35:16;1.30;;;0.70;;
14732;SDS011;7457;50.960;6.830;2023-04-01T01:37:55;0.40;;;0.40;;
14732;SDS011;7457;50.960;6.830;2023-04-01T01:40:25;0.60;;;0.60;;
14732;SDS011;7457;50.960;6.830;2023-04-01T01:42:53;0.80;;;0.50;;
14732;SDS011;7457;50.960;6.830;2023-04-01T01:45:23;1.15;;;0.70;;
14732;SDS011;7457;50.960;6.830;2023-04-01T01:47:51;1.00;;;0.60;;
14732;SDS011;7457;50.960;6.830;2023-04-01T01:50:17;1.65;;;0.73;;
14732;SDS011;7457;50.960;6.830;2023-04-01T01:52:44;1.73;;;0.65;;
14732;SDS011;7457;50.960;6.830;2023-04-01T02:00:38;0.40;;;0.40;;
14732;SDS011;7457;50.960;6.830;2023-04-01T02:03:05;2.53;;;0.75;;
14732;SDS011;7457;50.960;6.830;2023-04-01T02:05:31;1.98;;;1.15;;
14732;SDS011;7457;50.960;6.830;2023-04-01T02:08:00;0.90;;;0.60;;
14732;SDS011;7457;50.960;6.830;2023-04-01T02:10:37;0.75;;;0.60;;
14732;SDS011;7457;50.960;6.830;2023-04-01T02:13:07;1.00;;;0.68;;
14732;SDS011;7457;50.960;6.830;2023-04-01T02:15:45;0.68;;;0.63;;
14732;SDS011;7457;50.960;6.830;2023-04-01T02:18:14;0.50;;;0.50;;
14732;SDS011;7457;50.960;6.830;2023-04-01T02:20:41;0.85;;;0.43;;
14732;SDS011;7457;50.960;6.830;2023-04-01T02:23:08;0.80;;;0.50;;
14732;SDS011;7457;50.960;6.830;2023-04-01T02:25:35;0.40;;;0.40;;
14732;SDS011;7457;50.960;6.830;2023-04-01T02:28:04;3.13;;;0.60;;
14732;SDS011;7457;50.960;6.830;2023-04-01T02:30:32;0.43;;;0.43;;
14732;SDS011;7457;50.960;6.830;2023-04-01T02:33:00;0.40;;;0.40;;
14732;SDS011;7457;50.960;6.830;2023-04-01T02:35:26;0.60;;;0.60;;
14732;SDS011;7457;50.960;6.830;2023-04-01T02:37:53;1.20;;;0.70;;
14732;SDS011;7457;50.960;6.830;2023-04-01T02:40:20;0.85;;;0.60;;
14732;SDS011;7457;50.960;6.830;2023-04-01T02:42:46;0.50;;;0.50;;
14732;SDS011;7457;50.960;6.830;2023-04-01T02:45:12;2.08;;;0.50;;
14732;SDS011;7457;50.960;6.830;2023-04-01T02:47:38;0.60;;;0.60;;
14732;SDS011;7457;50.960;6.830;2023-04-01T02:50:04;0.55;;;0.55;;
14732;SDS011;7457;50.960;6.830;2023-04-01T02:52:31;0.90;;;0.60;;
14732;SDS011;7457;50.960;6.830;2023-04-01T02:54:57;0.82;;;0.50;;
14732;SDS011;7457;50.960;6.830;2023-04-01T02:57:23;0.60;;;0.60;;
14732;SDS011;7457;50.960;6.830;2023-04-01T02:59:49;0.93;;;0.50;;
14732;SDS011;7457;50.960;6.830;2023-04-01T03:02:15;0.50;;;0.50;;
14732;SDS011;7457;50.960;6.830;2023-04-01T03:04:41;1.58;;;0.80;;
14732;SDS011;7457;50.960;6.830;2023-04-01T03:07:07;0.60;;;0.60;;
14732;SDS011;7457;50.960;6.830;2023-04-01T03:09:35;1.08;;;0.73;;
14732;SDS011;7457;50.960;6.830;2023-04-01T03:12:01;2.08;;;0.65;;
14732;SDS011;7457;50.960;6.830;2023-04-01T03:14:27;3.17;;;0.60;;
14732;SDS011;7457;50.960;6.830;2023-04-01T03:16:53;3.22;;;0.90;;
14732;SDS011;7457;50.960;6.830;2023-04-01T03:19:18;3.20;;;0.50;;
14732;SDS011;7457;50.960;6.830;2023-04-01T03:21:44;0.65;;;0.40;;
14732;SDS011;7457;50.960;6.830;2023-04-01T03:24:10;1.55;;;0.50;;
14732;SDS011;7457;50.960;6.830;2023-04-01T03:26:35;0.50;;;0.50;;
14732;SDS011;7457;50.960;6.830;2023-04-01T03:29:01;1.67;;;0.40;;
14732;SDS011;7457;50.960;6.830;2023-04-01T03:31:26;0.50;;;0.50;;
14732;SDS011;7457;50.960;6.830;2023-04-01T03:33:52;1.60;;;0.63;;
14732;SDS011;7457;50.960;6.830;2023-04-01T03:36:18;1.35;;;0.30;;
14732;SDS011;7457;50.960;6.830;2023-04-01T03:38:44;0.43;;;0.43;;
14732;SDS011;7457;50.960;6.830;2023-04-01T03:41:13;0.40;;;0.40;;
14732;SDS011;7457;50.960;6.830;2023-04-01T03:43:40;0.50;;;0.50;;
14732;SDS011;7457;50.960;6.830;2023-04-01T03:46:06;0.88;;;0.50;;
14732;SDS011;7457;50.960;6.830;2023-04-01T03:48:32;0.88;;;0.40;;
14732;SDS011;7457;50.960;6.830;2023-04-01T03:50:58;0.65;;;0.60;;
14732;SDS011;7457;50.960;6.830;2023-04-01T03:53:23;0.40;;;0.40;;
14732;SDS011;7457;50.960;6.830;2023-04-01T03:55:49;0.50;;;0.50;;
14732;SDS011;7457;50.960;6.830;2023-04-01T03:58:16;0.57;;;0.40;;
14732;SDS011;7457;50.960;6.830;2023-04-01T04:00:42;2.05;;;0.50;;
14732;SDS011;7457;50.960;6.830;2023-04-01T04:03:07;0.50;;;0.50;;
14732;SDS011;7457;50.960;6.830;2023-04-01T04:05:33;0.70;;;0.45;;
14732;SDS011;7457;50.960;6.830;2023-04-01T04:07:59;0.80;;;0.52;;
14732;SDS011;7457;50.960;6.830;2023-04-01T04:10:25;0.40;;;0.40;;
14732;SDS011;7457;50.960;6.830;2023-04-01T04:12:50;0.40;;;0.40;;
14732;SDS011;7457;50.960;6.830;2023-04-01T04:15:17;0.43;;;0.43;;
14732;SDS011;7457;50.960;6.830;2023-04-01T04:17:45;0.93;;;0.52;;
14732;SDS011;7457;50.960;6.830;2023-04-01T04:20:11;0.60;;;0.52;;
14732;SDS011;7457;50.960;6.830;2023-04-01T04:22:37;0.85;;;0.50;;
14732;SDS011;7457;50.960;6.830;2023-04-01T04:25:03;1.00;;;0.50;;
14732;SDS011;7457;50.960;6.830;2023-04-01T04:27:29;0.40;;;0.30;;
14732;SDS011;7457;50.960;6.830;2023-04-01T04:29:55;0.80;;;0.50;;
14732;SDS011;7457;50.960;6.830;2023-04-01T04:32:20;0.40;;;0.40;;
14732;SDS011;7457;50.960;6.830;2023-04-01T04:34:46;0.52;;;0.47;;
14732;SDS011;7457;50.960;6.830;2023-04-01T04:37:12;0.73;;;0.73;;
14732;SDS011;7457;50.960;6.830;2023-04-01T04:39:37;0.50;;;0.50;;
14732;SDS011;7457;50.960;6.830;2023-04-01T04:42:03;0.57;;;0.57;;
14732;SDS011;7457;50.960;6.830;2023-04-01T04:44:29;0.52;;;0.52;;
14732;SDS011;7457;50.960;6.830;2023-04-01T04:46:54;0.50;;;0.50;;
14732;SDS011;7457;50.960;6.830;2023-04-01T04:49:20;0.32;;;0.32;;
14732;SDS011;7457;50.960;6.830;2023-04-01T04:51:46;0.50;;;0.50;;
14732;SDS011;7457;50.960;6.830;2023-04-01T04:54:11;1.33;;;0.70;;
14732;SDS011;7457;50.960;6.830;2023-04-01T04:56:37;0.50;;;0.50;;
14732;SDS011;7457;50.960;6.830;2023-04-01T04:59:03;0.57;;;0.57;;
14732;SDS011;7457;50.960;6.830;2023-04-01T05:01:28;1.05;;;0.50;;
14732;SDS011;7457;50.960;6.830;2023-04-01T05:03:54;0.50;;;0.50;;
14732;SDS011;7457;50.960;6.830;2023-04-01T05:06:20;1.38;;;0.60;;
14732;SDS011;7457;50.960;6.830;2023-04-01T05:08:46;0.52;;;0.52;;
14732;SDS011;7457;50.960;6.830;2023-04-01T05:11:13;1.13;;;1.05;;
14732;SDS011;7457;50.960;6.830;2023-04-01T05:13:43;0.50;;;0.50;;
14732;SDS011;7457;50.960;6.830;2023-04-01T05:16:10;1.02;;;0.88;;
14732;SDS011;7457;50.960;6.830;2023-04-01T05:18:41;0.98;;;0.75;;
14732;SDS011;7457;50.960;6.830;2023-04-01T05:21:07;1.10;;;0.77;;
14732;SDS011;7457;50.960;6.830;2023-04-01T05:23:34;1.67;;;0.65;;
14732;SDS011;7457;50.960;6.830;2023-04-01T05:26:03;0.60;;;0.60;;
14732;SDS011;7457;50.960;6.830;2023-04-01T05:28:34;1.73;;;0.98;;
14732;SDS011;7457;50.960;6.830;2023-04-01T05:31:00;0.80;;;0.50;;
14732;SDS011;7457;50.960;6.830;2023-04-01T05:33:27;2.78;;;0.80;;
14732;SDS011;7457;50.960;6.830;2023-04-01T05:35:54;1.20;;;1.10;;
14732;SDS011;7457;50.960;6.830;2023-04-01T05:38:20;0.77;;;0.77;;
14732;SDS011;7457;50.960;6.830;2023-04-01T05:40:46;1.27;;;1.13;;
14732;SDS011;7457;50.960;6.830;2023-04-01T05:43:11;0.70;;;0.70;;
14732;SDS011;7457;50.960;6.830;2023-04-01T05:45:37;1.33;;;0.80;;
14732;SDS011;7457;50.960;6.830;2023-04-01T05:48:03;0.90;;;0.90;;
14732;SDS011;7457;50.960;6.830;2023-04-01T05:50:29;1.05;;;1.05;;
14732;SDS011;7457;50.960;6.830;2023-04-01T05:52:55;1.08;;;0.90;;
14732;SDS011;7457;50.960;6.830;2023-04-01T05:55:21;0.80;;;0.80;;
14732;SDS011;7457;50.960;6.830;2023-04-01T05:57:47;0.70;;;0.70;;
14732;SDS011;7457;50.960;6.830;2023-04-01T06:00:14;0.98;;;0.98;;
14732;SDS011;7457;50.960;6.830;2023-04-01T06:02:40;1.20;;;1.10;;
14732;SDS011;7457;50.960;6.830;2023-04-01T06:05:17;3.92;;;0.90;;
14732;SDS011;7457;50.960;6.830;2023-04-01T06:07:49;1.27;;;1.08;;
14732;SDS011;7457;50.960;6.830;2023-04-01T06:10:20;1.33;;;1.23;;
14732;SDS011;7457;50.960;6.830;2023-04-01T06:12:52;1.13;;;1.13;;
14732;SDS011;7457;50.960;6.830;2023-04-01T06:15:36;2.10;;;1.20;;
14732;SDS011;7457;50.960;6.830;2023-04-01T06:29:40;3.25;;;1.25;;
14732;SDS011;7457;50.960;6.830;2023-04-01T06:56:36;1.75;;;1.65;;
14732;SDS011;7457;50.960;6.830;2023-04-01T06:59:08;4.88;;;1.55;;
14732;SDS011;7457;50.960;6.830;2023-04-01T07:04:39;1.65;;;1.52;;
14732;SDS011;7457;50.960;6.830;2023-04-01T07:10:15;1.75;;;1.48;;
14732;SDS011;7457;50.960;6.830;2023-04-01T07:12:55;1.67;;;1.58;;
14732;SDS011;7457;50.960;6.830;2023-04-01T07:15:36;2.05;;;1.60;;
14732;SDS011;7457;50.960;6.830;2023-04-01T07:18:07;2.70;;;1.80;;
14732;SDS011;7457;50.960;6.830;2023-04-01T07:20:55;2.65;;;1.75;;
14732;SDS011;7457;50.960;6.830;2023-04-01T07:23:26;1.55;;;1.45;;
14732;SDS011;7457;50.960;6.830;2023-04-01T07:26:00;2.00;;;1.80;;
14732;SDS011;7457;50.960;6.830;2023-04-01T07:28:40;3.42;;;2.05;;
14732;SDS011;7457;50.960;6.830;2023-04-01T07:36:45;2.80;;;1.55;;
14732;SDS011;7457;50.960;6.830;2023-04-01T07:39:16;1.92;;;1.50;;
14732;SDS011;7457;50.960;6.830;2023-04-01T07:41:54;2.20;;;2.00;;
14732;SDS011;7457;50.960;6.830;2023-04-01T07:50:18;1.90;;;1.70;;
14732;SDS011;7457;50.960;6.830;2023-04-01T07:55:39;1.45;;;1.33;;
14732;SDS011;7457;50.960;6.830;2023-04-01T08:06:25;1.80;;;1.30;;
14732;SDS011;7457;50.960;6.830;2023-04-01T08:23:19;1.20;;;1.10;;
14732;SDS011;7457;50.960;6.830;2023-04-01T08:31:40;1.30;;;1.20;;
14732;SDS011;7457;50.960;6.830;2023-04-01T08:34:12;1.55;;;1.45;;
14732;SDS011;7457;50.960;6.830;2023-04-01T08:36:44;1.30;;;1.20;;
14732;SDS011;7457;50.960;6.830;2023-04-01T08:39:20;1.45;;;1.35;;
14732;SDS011;7457;50.960;6.830;2023-04-01T08:42:02;1.25;;;1.20;;
14732;SDS011;7457;50.960;6.830;2023-04-01T08:47:49;1.30;;;1.20;;
14732;SDS011;7457;50.960;6.830;2023-04-01T08:50:40;1.80;;;1.35;;
14732;SDS011;7457;50.960;6.830;2023-04-01T08:58:37;0.90;;;0.90;;
14732;SDS011;7457;50.960;6.830;2023-04-01T09:20:28;0.80;;;0.80;;
14732;SDS011;7457;50.960;6.830;2023-04-01T09:28:42;0.90;;;0.90;;
14732;SDS011;7457;50.960;6.830;2023-04-01T09:52:01;2.25;;;1.60;;
14732;SDS011;7457;50.960;6.830;2023-04-01T10:23:44;2.00;;;1.80;;
14732;SDS011;7457;50.960;6.830;2023-04-01T10:56:47;2.80;;;2.25;;
14732;SDS011;7457;50.960;6.830;2023-04-01T11:13:13;1.60;;;1.50;;
14732;SDS011;7457;50.960;6.830;2023-04-01T11:30:44;2.22;;;1.65;;
14732;SDS011;7457;50.960;6.830;2023-04-01T11:33:40;1.70;;;1.60;;
14732;SDS011;7457;50.960;6.830;2023-04-01T11:42:00;1.95;;;1.48;;
14732;SDS011;7457;50.960;6.830;2023-04-01T11:44:36;1.60;;;1.50;;
14732;SDS011;7457;50.960;6.830;2023-04-01T11:53:02;1.67;;;1.58;;
14732;SDS011;7457;50.960;6.830;2023-04-01T12:01:14;1.70;;;1.60;;
14732;SDS011;7457;50.960;6.830;2023-04-01T12:14:30;2.30;;;1.70;;
14732;SDS011;7457;50.960;6.830;2023-04-01T12:17:24;2.30;;;2.10;;
14732;SDS011;7457;50.960;6.830;2023-04-01T12:22:41;1.80;;;1.70;;
14732;SDS011;7457;50.960;6.830;2023-04-01T12:33:52;4.22;;;2.03;;
14732;SDS011;7457;50.960;6.830;2023-04-01T12:52:48;13.55;;;10.05;;
14732;SDS011;7457;50.960;6.830;2023-04-01T13:01:17;2.40;;;2.30;;
14732;SDS011;7457;50.960;6.830;2023-04-01T13:09:18;24.08;;;12.98;;
14732;SDS011;7457;50.960;6.830;2023-04-01T13:19:49;8.18;;;5.80;;
14732;SDS011;7457;50.960;6.830;2023-04-01T13:23:05;7.25;;;5.53;;
14732;SDS011;7457;50.960;6.830;2023-04-01T13:28:20;7.45;;;6.60;;
14732;SDS011;7457;50.960;6.830;2023-04-01T13:30:56;10.77;;;9.68;;
14732;SDS011;7457;50.960;6.830;2023-04-01T13:36:05;3.38;;;3.08;;
14732;SDS011;7457;50.960;6.830;2023-04-01T13:43:58;5.38;;;4.95;;
14732;SDS011;7457;50.960;6.830;2023-04-01T13:55:10;2.83;;;2.63;;
14732;SDS011;7457;50.960;6.830;2023-04-01T13:57:43;4.60;;;4.20;;
14732;SDS011;7457;50.960;6.830;2023-04-01T14:02:56;2.70;;;2.50;;
14732;SDS011;7457;50.960;6.830;2023-04-01T14:11:25;2.88;;;2.67;;
14732;SDS011;7457;50.960;6.830;2023-04-01T14:20:26;3.42;;;3.13;;
14732;SDS011;7457;50.960;6.830;2023-04-01T14:25:41;3.00;;;2.78;;
14732;SDS011;7457;50.960;6.830;2023-04-01T14:36:31;4.10;;;3.47;;
14732;SDS011;7457;50.960;6.830;2023-04-01T14:49:54;5.00;;;3.42;;
14732;SDS011;7457;50.960;6.830;2023-04-01T14:52:35;3.60;;;3.30;;
14732;SDS011;7457;50.960;6.830;2023-04-01T14:55:47;3.03;;;2.72;;
14732;SDS011;7457;50.960;6.830;2023-04-01T14:57:59;2.90;;;2.70;;
14732;SDS011;7457;50.960;6.830;2023-04-01T15:08:59;3.30;;;3.00;;
14732;SDS011;7457;50.960;6.830;2023-04-01T15:19:57;3.70;;;3.40;;
14732;SDS011;7457;50.960;6.830;2023-04-01T15:28:37;3.63;;;3.33;;
14732;SDS011;7457;50.960;6.830;2023-04-01T15:36:31;3.40;;;3.10;;
14732;SDS011;7457;50.960;6.830;2023-04-01T15:42:05;3.45;;;3.15;;
14732;SDS011;7457;50.960;6.830;2023-04-01T15:44:41;3.80;;;3.50;;
14732;SDS011;7457;50.960;6.830;2023-04-01T15:49:52;4.28;;;3.88;;
14732;SDS011;7457;50.960;6.830;2023-04-01T16:00:49;4.55;;;4.03;;
14732;SDS011;7457;50.960;6.830;2023-04-01T16:11:39;4.30;;;3.70;;
14732;SDS011;7457;50.960;6.830;2023-04-01T16:20:21;3.72;;;3.42;;
14732;SDS011;7457;50.960;6.830;2023-04-01T16:23:02;3.78;;;3.38;;
14732;SDS011;7457;50.960;6.830;2023-04-01T16:25:41;3.38;;;3.08;;
14732;SDS011;7457;50.960;6.830;2023-04-01T16:33:51;7.70;;;6.25;;
14732;SDS011;7457;50.960;6.830;2023-04-01T16:41:49;4.57;;;4.18;;
14732;SDS011;7457;50.960;6.830;2023-04-01T16:44:24;6.13;;;5.50;;
14732;SDS011;7457;50.960;6.830;2023-04-01T16:52:29;4.78;;;4.10;;
14732;SDS011;7457;50.960;6.830;2023-04-01T16:55:03;4.03;;;3.65;;
14732;SDS011;7457;50.960;6.830;2023-04-01T16:57:48;3.80;;;3.50;;
14732;SDS011;7457;50.960;6.830;2023-04-01T17:03:02;3.40;;;3.10;;
14732;SDS011;7457;50.960;6.830;2023-04-01T17:14:01;3.55;;;2.97;;
14732;SDS011;7457;50.960;6.830;2023-04-01T17:32:34;3.33;;;3.03;;
14732;SDS011;7457;50.960;6.830;2023-04-01T17:35:27;3.33;;;3.08;;
14732;SDS011;7457;50.960;6.830;2023-04-01T17:45:57;4.50;;;4.10;;
14732;SDS011;7457;50.960;6.830;2023-04-01T17:51:45;18.58;;;12.43;;
14732;SDS011;7457;50.960;6.830;2023-04-01T18:15:46;5.80;;;5.30;;
14732;SDS011;7457;50.960;6.830;2023-04-01T18:21:24;6.55;;;5.88;;
14732;SDS011;7457;50.960;6.830;2023-04-01T18:23:59;5.97;;;5.00;;
14732;SDS011;7457;50.960;6.830;2023-04-01T18:26:36;5.30;;;4.80;;
14732;SDS011;7457;50.960;6.830;2023-04-01T18:29:17;7.38;;;6.70;;
14732;SDS011;7457;50.960;6.830;2023-04-01T18:31:52;4.90;;;4.40;;
14732;SDS011;7457;50.960;6.830;2023-04-01T18:40:13;7.18;;;5.07;;
14732;SDS011;7457;50.960;6.830;2023-04-01T18:43:27;5.20;;;4.70;;
14732;SDS011;7457;50.960;6.830;2023-04-01T18:46:07;4.90;;;4.40;;
14732;SDS011;7457;50.960;6.830;2023-04-01T18:55:24;5.60;;;4.97;;
14732;SDS011;7457;50.960;6.830;2023-04-01T18:57:48;8.43;;;6.40;;
14732;SDS011;7457;50.960;6.830;2023-04-01T19:00:25;8.30;;;7.50;;
14732;SDS011;7457;50.960;6.830;2023-04-01T19:05:38;19.73;;;16.48;;
14732;SDS011;7457;50.960;6.830;2023-04-01T19:11:08;5.05;;;4.53;;
14732;SDS011;7457;50.960;6.830;2023-04-01T19:16:24;6.53;;;5.88;;
14732;SDS011;7457;50.960;6.830;2023-04-01T19:27:08;5.40;;;4.90;;
14732;SDS011;7457;50.960;6.830;2023-04-01T19:38:03;10.55;;;9.45;;
14732;SDS011;7457;50.960;6.830;2023-04-01T19:40:48;6.35;;;5.78;;
14732;SDS011;7457;50.960;6.830;2023-04-01T19:46:06;7.57;;;6.88;;
14732;SDS011;7457;50.960;6.830;2023-04-01T19:49:06;8.77;;;7.88;;
14732;SDS011;7457;50.960;6.830;2023-04-01T20:04:48;19.63;;;17.10;;
14732;SDS011;7457;50.960;6.830;2023-04-01T20:10:09;9.82;;;7.57;;
14732;SDS011;7457;50.960;6.830;2023-04-01T20:18:13;11.20;;;10.00;;
14732;SDS011;7457;50.960;6.830;2023-04-01T20:21:16;11.63;;;10.43;;
14732;SDS011;7457;50.960;6.830;2023-04-01T20:23:59;9.55;;;8.52;;
14732;SDS011;7457;50.960;6.830;2023-04-01T20:26:35;14.68;;;12.32;;
14732;SDS011;7457;50.960;6.830;2023-04-01T20:40:51;7.65;;;6.18;;
14732;SDS011;7457;50.960;6.830;2023-04-01T20:43:23;7.13;;;6.15;;
14732;SDS011;7457;50.960;6.830;2023-04-01T20:46:22;6.97;;;6.05;;
14732;SDS011;7457;50.960;6.830;2023-04-01T20:49:23;9.80;;;8.55;;
14732;SDS011;7457;50.960;6.830;2023-04-01T21:11:15;11.82;;;10.63;;
14732;SDS011;7457;50.960;6.830;2023-04-01T21:13:56;8.63;;;7.68;;
14732;SDS011;7457;50.960;6.830;2023-04-01T21:24:52;6.85;;;6.18;;
14732;SDS011;7457;50.960;6.830;2023-04-01T21:40:39;8.38;;;6.95;;
14732;SDS011;7457;50.960;6.830;2023-04-01T22:14:01;10.15;;;9.20;;
14732;SDS011;7457;50.960;6.830;2023-04-01T22:19:42;8.00;;;7.20;;
14732;SDS011;7457;50.960;6.830;2023-04-01T22:22:26;21.63;;;17.95;;
14732;SDS011;7457;50.960;6.830;2023-04-01T22:25:16;8.48;;;7.32;;
14732;SDS011;7457;50.960;6.830;2023-04-01T22:27:46;10.20;;;8.52;;
14732;SDS011;7457;50.960;6.830;2023-04-01T22:30:27;11.30;;;9.35;;
14732;SDS011;7457;50.960;6.830;2023-04-01T22:40:25;8.82;;;7.93;;
14732;SDS011;7457;50.960;6.830;2023-04-01T22:43:19;9.00;;;7.38;;
14732;SDS011;7457;50.960;6.830;2023-04-01T22:48:26;8.05;;;7.25;;
14732;SDS011;7457;50.960;6.830;2023-04-01T22:53:45;7.65;;;6.90;;
14732;SDS011;7457;50.960;6.830;2023-04-01T22:56:21;7.15;;;6.45;;
14732;SDS011;7457;50.960;6.830;2023-04-01T22:58:56;6.82;;;6.13;;
14732;SDS011;7457;50.960;6.830;2023-04-01T23:02:08;7.70;;;6.40;;
14732;SDS011;7457;50.960;6.830;2023-04-01T23:04:37;8.10;;;7.03;;
14732;SDS011;7457;50.960;6.830;2023-04-01T23:10:00;8.35;;;7.47;;
14732;SDS011;7457;50.960;6.830;2023-04-01T23:12:30;7.93;;;7.03;;
14732;SDS011;7457;50.960;6.830;2023-04-01T23:14:58;8.60;;;7.70;;
14732;SDS011;7457;50.960;6.830;2023-04-01T23:20:14;8.50;;;7.60;;
14732;SDS011;7457;50.960;6.830;2023-04-01T23:22:58;8.77;;;7.78;;
14732;SDS011;7457;50.960;6.830;2023-04-01T23:30:58;8.95;;;8.05;;
14732;SDS011;7457;50.960;6.830;2023-04-01T23:33:26;8.32;;;7.53;;
14732;SDS011;7457;50.960;6.830;2023-04-01T23:38:40;8.90;;;7.05;;
14732;SDS011;7457;50.960;6.830;2023-04-01T23:41:08;7.68;;;6.88;;
14732;SDS011;7457;50.960;6.830;2023-04-01T23:43:43;8.85;;;7.95;;
14732;SDS011;7457;50.960;6.830;2023-04-01T23:46:10;10.18;;;7.35;;
14732;SDS011;7457;50.960;6.830;2023-04-01T23:48:42;8.20;;;7.07;;
14732;SDS011;7457;50.960;6.830;2023-04-01T23:51:22;8.05;;;7.25;;
14732;SDS011;7457;50.960;6.830;2023-04-01T23:54:03;9.05;;;7.45;;
14732;SDS011;7457;50.960;6.830;2023-04-01T23:56:41;8.43;;;6.68;;
14732;SDS011;7457;50.960;6.830;2023-04-01T23:59:14;7.68;;;6.65;;
